Portada
METAR-TAF:

METAR-TAF

Aeroports :

Kansas City, Missouri, Estats Units d'Amèrica

latitud: 39-17-50N, longitud: 094-43-50W, altitud: 312 m

Observació

L'informe es va fer fa 1 hora i 9 minuts, a les 06:53 UTC
Vent 7 kt del Est
Temperatura 21°C
Humitat 83%
Pressió 1020 hPa
Visibilitat: 16.1 km
Cel clar

METAR: KMCI 240653Z 09007KT 10SM CLR 21/18 A3012 RMK AO2 SLP188 T02110183

Hora: 03:02 (08:02 UTC)

Pronòstic

L'informe es va fer fa 2 hores i 42 minuts, a les 05:20 UTC
Pronòstic vàlid del 24 a les 06 UTC al 25 a les 06 UTC
Vent 11 kt del Est
Visibilitat: 10 km
Cel ennuvolat a una alçada de 25000 ft
A partir de les 24 a les 1000 UTC
Vent 12 kt del Est/Sud-Est
Visibilitat: 10 km
Cel ennuvolat a una alçada de 2500 ft
A partir de les 24 a les 1700 UTC
Vent 12 kt del Est/Sud-Est
Visibilitat: 10 km
Núvols disperses a una alçada de 3500 ft
Cel ennuvolat a una alçada de 25000 ft

TAF: KMCI 240520Z 2406/2506 09011KT P6SM BKN250 FM241000 11012KT P6SM BKN025 FM241700 11012KT P6SM SCT035 BKN250

Observacions i pronòstics meteorològics de més de 4000 aeroports (METAR i TAF).

Les estacions disponibles són els punts grocs i vermells al mapa.

Posi el ratolí al punt desitjat per veure el nom de l'estació.

Feu clic per veure les observacions i els pronòstics meteorològics.

Per canviar el mapa: feu clic els botons verds amb una creu de color negre per apropar; al botó verd amb un guió per allunyar la imatge; o en les fletxes verdes per a mapes adjacents.


METAR-TAF: